createdAt,value
2022-12-01T00:03:29.362Z,102.72
2022-12-01T00:08:33.016Z,126.55
2022-12-01T00:13:36.656Z,118.93
2022-12-01T00:18:39.064Z,110.15
2022-12-01T00:23:48.895Z,122.13
2022-12-01T00:28:53.057Z,113.07
2022-12-01T00:33:55.747Z,119.15
2022-12-01T00:38:58.378Z,121.70
2022-12-01T00:44:00.673Z,126.10
2022-12-01T00:49:03.331Z,115.32
2022-12-01T00:54:05.668Z,117.93
2022-12-01T00:59:07.943Z,122.97
2022-12-01T01:04:10.298Z,125.80
2022-12-01T01:09:13.958Z,123.77
2022-12-01T01:14:16.290Z,126.03
2022-12-01T01:19:18.648Z,123.07
2022-12-01T01:24:20.945Z,123.57
2022-12-01T01:29:23.286Z,125.82
2022-12-01T01:34:25.592Z,121.03
2022-12-01T01:39:28.021Z,119.07
2022-12-01T01:44:53.469Z,126.07
2022-12-01T01:49:58.641Z,119.20
2022-12-01T01:55:01.064Z,124.97
2022-12-01T02:00:10.732Z,132.03
2022-12-01T02:05:21.012Z,114.80
2022-12-01T02:10:41.870Z,105.85
2022-12-01T02:15:46.838Z,99.95
2022-12-01T02:21:13.646Z,104.90
2022-12-01T02:26:49.943Z,106.70
2022-12-01T02:32:13.354Z,104.15
2022-12-01T02:37:43.710Z,85.30
2022-12-01T02:43:03.071Z,90.22
2022-12-01T02:48:12.118Z,92.70
2022-12-01T02:53:18.841Z,78.68
2022-12-01T02:58:21.920Z,86.32
2022-12-01T03:03:40.207Z,90.93
2022-12-01T03:09:04.559Z,96.22
2022-12-01T03:19:41.094Z,98.75
2022-12-01T03:24:48.053Z,100.10
2022-12-01T03:29:53.200Z,107.50
2022-12-01T03:35:01.287Z,93.68
2022-12-01T03:40:10.190Z,114.20
2022-12-01T03:45:20.055Z,97.55
2022-12-01T03:50:31.396Z,104.25
2022-12-01T03:55:41.067Z,96.05
2022-12-01T04:00:45.896Z,120.68
2022-12-01T04:05:48.456Z,105.93
2022-12-01T04:10:50.968Z,102.13
2022-12-01T04:15:54.507Z,97.80
2022-12-01T04:20:56.851Z,106.53
2022-12-01T04:26:00.566Z,98.63
2022-12-01T04:31:02.999Z,106.55
2022-12-01T04:36:05.883Z,103.63
2022-12-01T04:41:12.493Z,107.78
2022-12-01T04:46:15.455Z,101.70
2022-12-01T04:51:18.120Z,107.95
2022-12-01T04:56:20.810Z,111.88
2022-12-01T05:01:23.162Z,102.53
2022-12-01T05:06:27.716Z,102.20
2022-12-01T05:11:31.254Z,112.50
2022-12-01T05:16:34.405Z,108.45
2022-12-01T05:26:39.308Z,117.28
2022-12-01T05:31:41.723Z,137.98
2022-12-01T05:36:44.127Z,113.20
2022-12-01T05:41:46.407Z,115.20
2022-12-01T05:46:48.676Z,107.13
2022-12-01T05:51:51.016Z,114.50
2022-12-01T05:56:53.351Z,118.13
2022-12-01T06:01:55.722Z,129.63
2022-12-01T06:06:58.049Z,108.57
2022-12-01T06:12:00.432Z,124.80
2022-12-01T06:17:02.791Z,127.80
2022-12-01T06:22:05.187Z,112.03
2022-12-01T06:27:07.462Z,122.03
2022-12-01T06:32:10.041Z,114.65
2022-12-01T06:37:12.413Z,116.90
2022-12-01T06:42:14.720Z,113.65
2022-12-01T06:47:17.024Z,102.13
2022-12-01T06:52:19.311Z,100.65
2022-12-01T06:57:21.660Z,93.32
2022-12-01T07:02:24.370Z,103.60
2022-12-01T07:07:26.753Z,115.80
2022-12-01T07:12:32.660Z,117.70
2022-12-01T07:17:35.930Z,120.55
2022-12-01T07:27:40.412Z,120.38
2022-12-01T07:32:42.678Z,123.45
2022-12-01T07:37:45.016Z,130.13
2022-12-01T07:42:47.339Z,116.17
2022-12-01T07:47:52.841Z,113.57
2022-12-01T07:52:55.146Z,108.72
2022-12-01T07:57:59.904Z,113.40
2022-12-01T08:03:02.380Z,113.97
2022-12-01T08:08:05.230Z,121.70
2022-12-01T08:13:07.614Z,100.75
2022-12-01T08:18:10.363Z,109.63
2022-12-01T08:23:12.842Z,115.77
2022-12-01T08:28:15.191Z,115.07
2022-12-01T08:33:17.505Z,109.22
2022-12-01T08:38:19.825Z,99.90
2022-12-01T08:43:49.411Z,101.63
2022-12-01T08:48:44.466Z,97.15
2022-12-01T08:53:48.731Z,95.45
2022-12-01T08:58:51.863Z,103.43
2022-12-01T09:03:55.824Z,84.15
2022-12-01T09:09:01.214Z,89.68
2022-12-01T09:14:03.719Z,88.03
2022-12-01T09:19:06.821Z,83.37
2022-12-01T09:24:14.291Z,83.53
2022-12-01T09:29:17.243Z,81.45
2022-12-01T09:34:20.609Z,78.53
2022-12-01T09:39:23.023Z,70.22
2022-12-01T09:44:30.313Z,71.67
2022-12-01T09:49:44.544Z,65.28
2022-12-01T09:54:47.809Z,69.88
2022-12-01T10:04:56.759Z,65.80
2022-12-01T10:10:03.898Z,61.92
2022-12-01T10:15:24.575Z,62.40
2022-12-01T10:20:42.285Z,58.22
2022-12-01T10:26:14.823Z,55.63
2022-12-01T10:31:30.907Z,59.63
2022-12-01T10:36:34.254Z,58.50
2022-12-01T10:46:49.340Z,65.35
2022-12-01T10:51:58.300Z,56.72
2022-12-01T10:57:01.632Z,54.42
2022-12-01T11:07:16.278Z,64.15
2022-12-01T11:12:18.916Z,52.53
2022-12-01T11:17:23.890Z,46.72
2022-12-01T11:22:31.096Z,51.08
2022-12-01T11:27:50.852Z,54.28
2022-12-01T11:33:02.511Z,53.83
2022-12-01T11:38:29.245Z,54.63
2022-12-01T11:43:33.775Z,53.67
2022-12-01T11:48:36.677Z,44.72
2022-12-01T11:53:41.850Z,45.40
2022-12-01T11:58:46.643Z,43.28
2022-12-01T12:04:27.761Z,41.20
2022-12-01T12:09:51.809Z,39.88
2022-12-01T12:14:59.679Z,45.22
2022-12-01T12:20:20.427Z,46.38
2022-12-01T12:25:31.742Z,40.70
2022-12-01T12:30:46.564Z,39.47
2022-12-01T12:36:07.533Z,41.05
2022-12-01T12:41:33.676Z,48.22
2022-12-01T12:46:50.142Z,43.95
2022-12-01T12:51:55.602Z,42.97
2022-12-01T12:57:05.918Z,46.30
2022-12-01T13:02:26.160Z,48.00
2022-12-01T13:07:46.173Z,47.97
2022-12-01T13:13:01.536Z,50.97
2022-12-01T13:18:17.201Z,52.78
2022-12-01T13:23:20.145Z,48.20
2022-12-01T13:28:30.938Z,54.53
2022-12-01T13:33:34.361Z,58.38
2022-12-01T13:38:38.459Z,62.85
2022-12-01T13:49:39.291Z,57.75
2022-12-01T13:55:07.707Z,51.97
2022-12-01T14:00:28.214Z,57.33
2022-12-01T14:05:39.784Z,56.78
2022-12-01T14:10:56.867Z,70.13
2022-12-01T14:16:02.478Z,67.90
2022-12-01T14:21:08.107Z,74.82
2022-12-01T14:26:15.892Z,74.93
2022-12-01T14:31:18.293Z,72.15
2022-12-01T14:36:23.332Z,72.67
2022-12-01T14:41:33.388Z,75.28
2022-12-01T14:46:43.890Z,81.68
2022-12-01T14:51:49.859Z,67.97
2022-12-01T14:56:55.973Z,67.97
2022-12-01T15:02:06.537Z,71.82
2022-12-01T15:07:08.923Z,81.68
2022-12-01T15:12:25.985Z,75.37
2022-12-01T15:17:33.595Z,75.90
2022-12-01T15:22:35.952Z,84.32
2022-12-01T15:27:38.255Z,77.03
2022-12-01T15:32:43.720Z,84.23
2022-12-01T15:37:47.608Z,76.90
2022-12-01T15:43:07.433Z,78.32
2022-12-01T15:48:24.163Z,88.57
2022-12-01T15:53:29.889Z,66.90
2022-12-01T15:58:35.840Z,76.82
2022-12-01T16:04:01.192Z,80.30
2022-12-01T16:09:40.383Z,75.93
2022-12-01T16:15:01.047Z,73.43
2022-12-01T16:20:40.747Z,69.75
2022-12-01T16:25:45.364Z,70.93
2022-12-01T16:30:48.000Z,68.00
2022-12-01T16:35:50.914Z,76.82
2022-12-01T16:40:55.759Z,76.10
2022-12-01T16:46:00.765Z,77.47
2022-12-01T16:51:05.532Z,80.32
2022-12-01T16:56:12.633Z,73.47
2022-12-01T17:01:15.020Z,71.50
2022-12-01T17:06:19.718Z,72.63
2022-12-01T17:11:22.043Z,72.75
2022-12-01T17:16:24.437Z,78.63
2022-12-01T17:21:27.007Z,74.17
2022-12-01T17:26:29.288Z,73.93
2022-12-01T17:31:31.643Z,77.53
2022-12-01T17:36:34.069Z,70.97
2022-12-01T17:41:36.411Z,66.60
2022-12-01T17:46:38.810Z,67.38
2022-12-01T17:51:41.261Z,69.03
2022-12-01T17:56:43.703Z,66.80
2022-12-01T18:01:46.076Z,68.70
2022-12-01T18:06:53.767Z,65.77
2022-12-01T18:11:57.103Z,75.35
2022-12-01T18:16:59.478Z,72.80
2022-12-01T18:22:01.808Z,73.33
2022-12-01T18:27:04.238Z,80.50
2022-12-01T18:32:06.727Z,76.20
2022-12-01T18:37:09.067Z,83.33
2022-12-01T18:42:11.388Z,81.37
2022-12-01T18:47:13.786Z,80.15
2022-12-01T18:52:16.266Z,75.10
2022-12-01T18:57:18.533Z,77.90
2022-12-01T19:02:20.926Z,65.72
2022-12-01T19:07:29.352Z,69.20
2022-12-01T19:12:36.397Z,78.00
2022-12-01T19:17:41.770Z,71.32
2022-12-01T19:22:44.119Z,72.60
2022-12-01T19:27:46.605Z,80.33
2022-12-01T19:32:48.940Z,70.07
2022-12-01T19:37:51.257Z,66.47
2022-12-01T19:42:53.692Z,60.28
2022-12-01T19:47:56.007Z,47.73
2022-12-01T19:52:58.317Z,43.70
2022-12-01T19:58:00.630Z,40.50
2022-12-01T20:03:03.036Z,41.00
2022-12-01T20:08:05.533Z,39.03
2022-12-01T20:18:10.707Z,38.33
2022-12-01T20:23:12.970Z,38.00
2022-12-01T20:28:15.313Z,40.72
2022-12-01T20:33:17.932Z,36.50
2022-12-01T20:38:27.056Z,42.85
2022-12-01T20:43:30.059Z,43.83
2022-12-01T20:48:32.753Z,43.07
2022-12-01T20:53:35.956Z,40.70
2022-12-01T20:58:39.540Z,40.35
2022-12-01T21:03:43.533Z,43.15
2022-12-01T21:08:48.444Z,42.40
2022-12-01T21:13:50.769Z,42.45
2022-12-01T21:18:54.442Z,43.03
2022-12-01T21:24:08.482Z,41.88
2022-12-01T21:29:25.718Z,46.38
2022-12-01T21:34:28.952Z,44.03
2022-12-01T21:39:31.260Z,50.35
2022-12-01T21:44:37.285Z,50.70
2022-12-01T21:49:39.646Z,50.67
2022-12-01T21:54:41.952Z,47.37
2022-12-01T21:59:44.296Z,51.60
2022-12-01T22:04:46.789Z,52.27
2022-12-01T22:09:49.572Z,51.83
2022-12-01T22:14:58.724Z,56.30
2022-12-01T22:20:01.931Z,57.58
2022-12-01T22:30:22.875Z,52.63
2022-12-01T22:35:38.747Z,54.15
2022-12-01T22:40:41.060Z,55.63
2022-12-01T22:45:48.534Z,49.00
2022-12-01T22:50:52.022Z,53.95
2022-12-01T22:55:57.220Z,57.45
2022-12-01T23:01:14.202Z,52.60
2022-12-01T23:07:04.464Z,55.97
2022-12-01T23:12:09.806Z,53.15
2022-12-01T23:17:30.294Z,56.78
2022-12-01T23:22:32.659Z,58.08
2022-12-01T23:27:35.224Z,50.10
2022-12-01T23:32:37.917Z,49.63
2022-12-01T23:37:42.655Z,57.10
2022-12-01T23:42:45.000Z,47.17
2022-12-01T23:47:47.697Z,50.77
2022-12-01T23:52:50.250Z,46.45
2022-12-01T23:57:53.101Z,51.97
